Flight Track Log - Related Links

Times and Time Zones

All times are in EDT time to prevent confusion due to time zone crossing. See the TAM3445 flight status page for this flight to view local times or setup timezone preferences in your user account.

Time Position Orientation Groundspeed Altitude Reporting Facility
EDT Latitude Longitude Course Direction KTS MPH feet Rate Location/Type
Mon 08:04:00 PM -21.3215 -44.2856 148° Southeast  Level Estimated
Mon 08:05:00 PM -21.4001 -44.2312 147° Southeast  Level Estimated
Mon 08:06:00 PM -21.4786 -44.1768 147° Southeast  Level Estimated
Mon 08:07:00 PM -21.5572 -44.1223 147° Southeast  Level Estimated
Mon 08:08:00 PM -21.6357 -44.0677 147° Southeast  Level Estimated
Mon 08:09:00 PM -21.7142 -44.0131 147° Southeast  Level Estimated
Mon 08:10:00 PM -21.7927 -43.9584 147° Southeast  Level Estimated
Mon 08:11:00 PM -21.8711 -43.9037 147° Southeast  Level Estimated
Mon 08:12:00 PM -21.9496 -43.8489 147° Southeast  Level Estimated
Mon 08:13:00 PM -22.0280 -43.7940 147° Southeast  Level Estimated
Mon 08:14:00 PM -22.1064 -43.7391 147° Southeast  Level Estimated
Mon 08:15:00 PM -22.1848 -43.6841 147° Southeast  Level Estimated
Mon 08:16:00 PM -22.2632 -43.6290 147° Southeast  Level Estimated
Mon 08:17:00 PM -22.3415 -43.5739 147° Southeast  Level Estimated
Mon 08:18:00 PM -22.4199 -43.5188 147° Southeast  Level Estimated
Mon 08:19:00 PM -22.4982 -43.4635 147° Southeast  Level Estimated
Mon 08:20:00 PM -22.5765 -43.4082 147° Southeast  Level Estimated
Mon 08:21:00 PM -22.6548 -43.3529 147° Southeast  Level Estimated
Mon 08:22:00 PM -22.7330 -43.2975 147° Southeast  Level Estimated
Mon 08:23:00 PM -22.8089 -43.2436 147° Southeast  Level Estimated
Mon 08:24:00 PM -22.8089 -43.2436 137° Southeast  Level Estimated
Mon 08:25:00 PM -22.8089 -43.2436 137° Southeast  Level Estimated
Mon 08:26:00 PM -22.8089 -43.2436 137° Southeast  Level Estimated
Mon 08:27:00 PM -22.8089 -43.2436 137° Southeast  Level Estimated
Mon 08:28:00 PM -22.8089 -43.2436 137° Southeast  Level Estimated
Mon 08:29:00 PM -22.8089 -43.2436 137° Southeast  Level Estimated
Mon 08:30:00 PM -22.8089 -43.2436 137° Southeast  Level Estimated
Mon 08:31:00 PM -22.8089 -43.2436 137° Southeast  Level Estimated
Mon 08:32:00 PM -22.8089 -43.2436 137° Southeast  Level Estimated
Mon 08:33:00 PM -22.8089 -43.2436 137° Southeast  Level Estimated
Mon 08:34:00 PM -22.8089 -43.2436 137° Southeast  Level Estimated
Mon 08:35:00 PM -22.8089 -43.2436 137° Southeast  Level Estimated
Mon 08:36:00 PM -22.8089 -43.2436 137° Southeast  Level Estimated
Mon 08:37:00 PM -22.8089 -43.2436 137° Southeast  Level Estimated
Mon 08:38:00 PM -22.8089 -43.2436 137° Southeast  Level Estimated
Mon 08:39:00 PM -22.8089 -43.2436 137° Southeast  Level Estimated

Login

Don't have an account? Register now (free) for customized features, flight alerts, and more!